createdAt,value
2022-11-18T00:01:29.264Z,7.41
2022-11-18T00:04:14.632Z,7.34
2022-11-18T00:06:59.923Z,7.32
2022-11-18T00:09:45.108Z,7.48
2022-11-18T00:12:48.901Z,7.40
2022-11-18T00:15:34.098Z,7.55
2022-11-18T00:18:19.367Z,7.44
2022-11-18T00:21:06.991Z,7.45
2022-11-18T00:23:52.210Z,7.58
2022-11-18T00:26:37.368Z,7.60
2022-11-18T00:29:24.031Z,7.59
2022-11-18T00:32:09.027Z,7.62
2022-11-18T00:34:54.046Z,7.62
2022-11-18T00:37:39.122Z,7.62
2022-11-18T00:40:25.826Z,7.63
2022-11-18T00:43:10.638Z,7.64
2022-11-18T00:45:56.240Z,7.66
2022-11-18T00:48:41.718Z,7.67
2022-11-18T00:51:27.006Z,7.72
2022-11-18T00:54:12.614Z,7.76
2022-11-18T00:56:57.539Z,7.79
2022-11-18T00:59:42.852Z,7.79
2022-11-18T01:02:27.789Z,7.69
2022-11-18T01:05:13.064Z,7.81
2022-11-18T01:07:58.285Z,7.82
2022-11-18T01:10:43.583Z,7.83
2022-11-18T01:13:29.292Z,7.81
2022-11-18T01:16:19.311Z,7.80
2022-11-18T01:19:04.449Z,7.73
2022-11-18T01:21:50.035Z,7.81
2022-11-18T01:24:35.078Z,7.79
2022-11-18T01:27:20.540Z,7.79
2022-11-18T01:30:05.876Z,7.78
2022-11-18T01:32:50.859Z,7.78
2022-11-18T01:35:40.386Z,7.76
2022-11-18T01:38:25.657Z,7.81
2022-11-18T01:41:10.777Z,7.80
2022-11-18T01:43:56.022Z,7.81
2022-11-18T01:46:40.927Z,7.84
2022-11-18T01:49:26.379Z,7.76
2022-11-18T01:52:11.901Z,7.88
2022-11-18T01:55:01.731Z,7.87
2022-11-18T01:57:48.152Z,7.86
2022-11-18T02:00:33.938Z,7.84
2022-11-18T02:03:21.135Z,7.86
2022-11-18T02:06:08.543Z,7.83
2022-11-18T02:08:54.558Z,7.77
2022-11-18T02:11:51.645Z,7.87
2022-11-18T02:14:40.856Z,7.85
2022-11-18T02:17:47.603Z,7.87
2022-11-18T02:20:44.262Z,7.89
2022-11-18T02:23:48.121Z,7.87
2022-11-18T02:27:21.251Z,7.85
2022-11-18T02:30:12.224Z,7.67
2022-11-18T02:33:07.631Z,7.85
2022-11-18T02:36:01.891Z,7.85
2022-11-18T02:38:53.176Z,7.86
2022-11-18T02:41:41.371Z,7.85
2022-11-18T02:44:29.294Z,7.84
2022-11-18T02:47:16.930Z,7.79
2022-11-18T02:50:10.892Z,7.80
2022-11-18T02:53:01.228Z,7.82
2022-11-18T02:55:48.070Z,7.81
2022-11-18T02:58:32.999Z,7.79
2022-11-18T03:01:27.265Z,7.79
2022-11-18T03:04:14.255Z,7.76
2022-11-18T03:07:19.083Z,7.74
2022-11-18T03:10:04.651Z,7.64
2022-11-18T03:13:24.306Z,7.72
2022-11-18T03:16:16.227Z,7.69
2022-11-18T03:19:56.365Z,7.65
2022-11-18T03:23:12.017Z,7.61
2022-11-18T03:26:02.756Z,7.60
2022-11-18T03:28:59.091Z,7.58
2022-11-18T03:31:49.366Z,7.56
2022-11-18T03:34:39.608Z,7.48
2022-11-18T03:37:26.853Z,7.51
2022-11-18T03:40:20.479Z,7.49
2022-11-18T03:43:11.207Z,7.46
2022-11-18T03:46:19.711Z,7.42
2022-11-18T03:49:07.222Z,7.37
2022-11-18T03:51:57.106Z,7.37
2022-11-18T03:54:47.082Z,7.27
2022-11-18T03:57:51.381Z,7.32
2022-11-18T04:00:44.800Z,7.29
2022-11-18T04:03:30.258Z,7.27
2022-11-18T04:06:31.775Z,7.25
2022-11-18T04:09:24.607Z,7.19
2022-11-18T04:12:15.630Z,7.22
2022-11-18T04:15:01.484Z,7.20
2022-11-18T04:17:46.675Z,7.19
2022-11-18T04:20:33.134Z,7.17
2022-11-18T04:23:18.477Z,7.15
2022-11-18T04:26:03.654Z,7.20
2022-11-18T04:28:48.952Z,7.21
2022-11-18T04:31:33.874Z,7.22
2022-11-18T04:34:19.048Z,7.22
2022-11-18T04:37:04.177Z,7.27
2022-11-18T04:39:49.418Z,7.31
2022-11-18T04:42:34.661Z,7.31
2022-11-18T04:45:19.581Z,7.32
2022-11-18T04:48:05.053Z,7.37
2022-11-18T04:50:49.955Z,7.41
2022-11-18T04:53:35.039Z,7.40
2022-11-18T04:56:20.030Z,7.40
2022-11-18T04:59:05.441Z,7.26
2022-11-18T05:01:50.912Z,7.44
2022-11-18T05:04:36.232Z,7.48
2022-11-18T05:07:21.275Z,7.38
2022-11-18T05:10:06.680Z,7.51
2022-11-18T05:12:52.543Z,7.41
2022-11-18T05:15:37.553Z,7.45
2022-11-18T05:18:22.331Z,7.31
2022-11-18T05:21:07.879Z,7.34
2022-11-18T05:23:52.840Z,7.24
2022-11-18T05:26:38.353Z,7.29
2022-11-18T05:29:23.638Z,7.25
2022-11-18T05:32:09.289Z,7.23
2022-11-18T05:34:54.401Z,7.17
2022-11-18T05:37:39.194Z,7.16
2022-11-18T05:40:24.142Z,7.11
2022-11-18T05:43:12.988Z,7.10
2022-11-18T05:45:58.242Z,7.18
2022-11-18T05:48:43.159Z,7.20
2022-11-18T05:51:28.107Z,7.23
2022-11-18T05:54:15.815Z,7.14
2022-11-18T05:57:01.281Z,7.24
2022-11-18T05:59:46.414Z,7.22
2022-11-18T06:02:31.561Z,7.25
2022-11-18T06:05:18.478Z,7.27
2022-11-18T06:08:03.844Z,7.20
2022-11-18T06:10:50.101Z,7.30
2022-11-18T06:13:43.350Z,7.23
2022-11-18T06:16:35.318Z,7.34
2022-11-18T06:19:24.064Z,7.33
2022-11-18T06:22:09.809Z,7.35
2022-11-18T06:24:55.215Z,7.38
2022-11-18T06:27:41.051Z,7.43
2022-11-18T06:30:26.427Z,7.47
2022-11-18T06:33:11.331Z,7.51
2022-11-18T06:35:56.532Z,7.55
2022-11-18T06:38:41.948Z,7.60
2022-11-18T06:41:26.872Z,7.60
2022-11-18T06:44:12.476Z,7.43
2022-11-18T06:46:57.856Z,7.64
2022-11-18T06:49:43.173Z,7.65
2022-11-18T06:52:28.164Z,7.61
2022-11-18T06:55:13.470Z,7.67
2022-11-18T06:57:58.973Z,7.70
2022-11-18T07:00:44.413Z,7.74
2022-11-18T07:03:29.596Z,7.75
2022-11-18T07:06:17.502Z,7.69
2022-11-18T07:09:05.234Z,7.76
2022-11-18T07:11:50.166Z,7.83
2022-11-18T07:14:35.295Z,7.86
2022-11-18T07:17:20.573Z,7.87
2022-11-18T07:20:06.073Z,7.86
2022-11-18T07:22:53.831Z,7.78
2022-11-18T07:25:44.050Z,7.89
2022-11-18T07:28:31.242Z,7.90
2022-11-18T07:31:20.622Z,7.93
2022-11-18T07:34:06.108Z,7.94
2022-11-18T07:36:51.352Z,7.94
2022-11-18T07:39:36.625Z,7.91
2022-11-18T07:42:21.528Z,7.93
2022-11-18T07:45:07.086Z,8.48
2022-11-18T07:47:52.161Z,8.68
2022-11-18T07:50:37.488Z,8.33
2022-11-18T07:53:22.548Z,8.14
2022-11-18T07:56:08.716Z,8.00
2022-11-18T07:58:55.166Z,7.97
2022-11-18T08:01:40.081Z,7.89
2022-11-18T08:04:25.703Z,7.72
2022-11-18T08:07:10.767Z,7.64
2022-11-18T08:09:55.707Z,7.66
2022-11-18T08:12:40.874Z,7.55
2022-11-18T08:15:26.146Z,7.57
2022-11-18T08:18:13.884Z,7.45
2022-11-18T08:21:06.030Z,7.56
2022-11-18T08:23:53.378Z,7.38
2022-11-18T08:26:38.976Z,7.56
2022-11-18T08:29:25.566Z,8.49
2022-11-18T08:32:10.822Z,8.55
2022-11-18T08:34:55.951Z,8.65
2022-11-18T08:37:41.094Z,8.86
2022-11-18T08:40:26.787Z,8.72
2022-11-18T08:43:12.270Z,8.67
2022-11-18T08:45:57.336Z,9.05
2022-11-18T08:48:42.179Z,9.00
2022-11-18T08:51:28.474Z,8.67
2022-11-18T08:54:13.988Z,8.57
2022-11-18T08:56:59.364Z,8.66
2022-11-18T08:59:44.218Z,8.84
2022-11-18T09:02:29.349Z,8.86
2022-11-18T09:05:14.383Z,8.95
2022-11-18T09:07:59.502Z,8.83
2022-11-18T09:10:44.566Z,8.92
2022-11-18T09:16:35.587Z,9.52
2022-11-18T09:22:25.839Z,9.18
2022-11-18T09:25:10.995Z,9.09
2022-11-18T09:27:56.563Z,9.20
2022-11-18T09:30:41.433Z,9.20
2022-11-18T09:33:27.654Z,9.41
2022-11-18T09:36:21.960Z,9.40
2022-11-18T09:39:06.975Z,9.36
2022-11-18T09:42:07.745Z,9.42
2022-11-18T09:45:05.278Z,9.40
2022-11-18T09:47:57.780Z,9.48
2022-11-18T09:50:49.531Z,9.66
2022-11-18T09:53:35.706Z,9.83
2022-11-18T09:56:22.225Z,9.80
2022-11-18T09:59:13.028Z,9.69
2022-11-18T10:02:11.422Z,9.77
2022-11-18T10:05:07.404Z,9.72
2022-11-18T10:08:24.906Z,9.75
2022-11-18T10:11:10.162Z,9.91
2022-11-18T10:14:31.587Z,10.02
2022-11-18T10:17:58.159Z,9.99
2022-11-18T10:21:05.760Z,10.05
2022-11-18T10:23:54.955Z,10.11
2022-11-18T10:26:42.199Z,10.04
2022-11-18T10:29:27.516Z,10.15
2022-11-18T10:32:15.806Z,10.20
2022-11-18T10:35:00.994Z,10.24
2022-11-18T10:38:07.836Z,10.19
2022-11-18T10:40:53.475Z,10.36
2022-11-18T10:43:53.704Z,10.49
2022-11-18T10:46:39.308Z,10.73
2022-11-18T10:49:24.250Z,10.92
2022-11-18T10:52:11.726Z,10.79
2022-11-18T10:55:20.905Z,11.14
2022-11-18T10:58:19.232Z,11.20
2022-11-18T11:01:13.838Z,10.94
2022-11-18T11:04:19.389Z,11.11
2022-11-18T11:07:23.508Z,11.23
2022-11-18T11:10:13.290Z,11.20
2022-11-18T11:13:09.653Z,11.08
2022-11-18T11:15:59.250Z,11.15
2022-11-18T11:18:49.037Z,11.39
2022-11-18T11:21:34.016Z,11.31
2022-11-18T11:24:26.827Z,11.25
2022-11-18T11:30:51.648Z,11.67
2022-11-18T11:33:52.806Z,11.82
2022-11-18T11:37:12.895Z,11.89
2022-11-18T11:40:24.395Z,11.92
2022-11-18T11:43:39.463Z,12.12
2022-11-18T11:46:40.734Z,12.03
2022-11-18T11:49:34.075Z,11.89
2022-11-18T11:52:38.168Z,12.04
2022-11-18T11:55:56.606Z,12.18
2022-11-18T11:59:01.766Z,12.22
2022-11-18T12:01:55.788Z,12.20
2022-11-18T12:04:50.881Z,12.38
2022-11-18T12:07:45.479Z,12.44
2022-11-18T12:10:52.218Z,12.35
2022-11-18T12:13:55.898Z,12.29
2022-11-18T12:16:58.715Z,12.53
2022-11-18T12:19:43.951Z,12.60
2022-11-18T12:23:06.510Z,12.61
2022-11-18T12:25:54.515Z,12.75
2022-11-18T12:28:45.190Z,12.72
2022-11-18T12:31:35.196Z,12.65
2022-11-18T12:34:26.084Z,12.76
2022-11-18T12:37:26.302Z,12.88
2022-11-18T12:40:32.890Z,12.80
2022-11-18T12:43:45.590Z,12.68
2022-11-18T12:46:31.088Z,12.53
2022-11-18T12:49:22.357Z,12.39
2022-11-18T12:52:36.979Z,12.42
2022-11-18T12:55:31.857Z,12.29
2022-11-18T12:58:23.138Z,12.35
2022-11-18T13:01:12.104Z,12.27
2022-11-18T13:04:15.413Z,12.32
2022-11-18T13:07:02.190Z,12.48
2022-11-18T13:09:47.845Z,12.62
2022-11-18T13:12:33.056Z,12.54
2022-11-18T13:15:37.505Z,12.54
2022-11-18T13:18:22.794Z,12.63
2022-11-18T13:21:27.681Z,12.80
2022-11-18T13:24:19.554Z,12.68
2022-11-18T13:27:05.267Z,12.70
2022-11-18T13:30:17.277Z,12.53
2022-11-18T13:33:02.634Z,12.28
2022-11-18T13:35:47.469Z,12.18
2022-11-18T13:38:32.847Z,12.00
2022-11-18T13:41:24.163Z,12.26
2022-11-18T13:44:26.941Z,12.40
2022-11-18T13:47:27.255Z,12.24
2022-11-18T13:50:12.554Z,12.10
2022-11-18T13:53:04.122Z,12.11
2022-11-18T13:55:57.968Z,12.05
2022-11-18T13:59:15.919Z,11.97
2022-11-18T14:01:55.686Z,11.92
2022-11-18T14:04:49.974Z,11.93
2022-11-18T14:07:35.598Z,11.93
2022-11-18T14:10:29.591Z,11.84
2022-11-18T14:13:17.672Z,11.77
2022-11-18T14:16:24.028Z,11.78
2022-11-18T14:19:30.394Z,11.78
2022-11-18T14:22:27.259Z,11.71
2022-11-18T14:25:27.057Z,11.71
2022-11-18T14:28:21.434Z,11.62
2022-11-18T14:31:12.467Z,11.60
2022-11-18T14:34:16.416Z,11.59
2022-11-18T14:37:02.982Z,11.44
2022-11-18T14:39:58.030Z,11.47
2022-11-18T14:42:42.948Z,11.49
2022-11-18T14:45:28.270Z,11.43
2022-11-18T14:48:17.640Z,11.40
2022-11-18T14:51:02.745Z,11.27
2022-11-18T14:53:47.850Z,11.38
2022-11-18T14:56:34.850Z,11.40
2022-11-18T14:59:21.588Z,11.42
2022-11-18T15:02:14.485Z,11.38
2022-11-18T15:05:00.047Z,11.26
2022-11-18T15:07:45.361Z,11.32
2022-11-18T15:10:30.658Z,11.24
2022-11-18T15:13:15.736Z,11.30
2022-11-18T15:16:02.678Z,11.29
2022-11-18T15:18:51.432Z,11.26
2022-11-18T15:21:36.398Z,11.24
2022-11-18T15:24:21.544Z,11.21
2022-11-18T15:27:09.468Z,11.22
2022-11-18T15:29:56.410Z,11.16
2022-11-18T15:32:43.945Z,11.17
2022-11-18T15:35:29.302Z,11.14
2022-11-18T15:38:14.356Z,11.12
2022-11-18T15:40:59.209Z,11.10
2022-11-18T15:43:50.174Z,11.09
2022-11-18T15:46:35.238Z,11.04
2022-11-18T15:49:20.173Z,10.98
2022-11-18T15:52:08.499Z,10.95
2022-11-18T15:54:54.684Z,10.82
2022-11-18T15:57:39.572Z,10.89
2022-11-18T16:00:24.784Z,10.89
2022-11-18T16:03:09.836Z,10.88
2022-11-18T16:05:54.709Z,10.84
2022-11-18T16:08:39.713Z,10.85
2022-11-18T16:11:44.085Z,10.81
2022-11-18T16:14:29.440Z,10.76
2022-11-18T16:17:14.589Z,10.74
2022-11-18T16:19:59.620Z,10.72
2022-11-18T16:22:44.516Z,10.54
2022-11-18T16:25:29.970Z,10.67
2022-11-18T16:28:15.237Z,10.62
2022-11-18T16:31:18.753Z,10.54
2022-11-18T16:34:15.518Z,10.47
2022-11-18T16:37:01.306Z,10.50
2022-11-18T16:39:46.574Z,10.47
2022-11-18T16:42:31.553Z,10.49
2022-11-18T16:45:17.373Z,10.47
2022-11-18T16:48:06.296Z,10.43
2022-11-18T16:51:19.115Z,10.43
2022-11-18T16:54:06.884Z,10.47
2022-11-18T16:56:53.641Z,10.42
2022-11-18T16:59:38.869Z,10.39
2022-11-18T17:02:24.230Z,10.39
2022-11-18T17:05:09.551Z,10.35
2022-11-18T17:07:55.093Z,10.30
2022-11-18T17:10:40.181Z,10.28
2022-11-18T17:13:25.077Z,10.21
2022-11-18T17:16:16.154Z,10.19
2022-11-18T17:19:03.742Z,10.12
2022-11-18T17:21:52.595Z,10.09
2022-11-18T17:24:37.734Z,9.96
2022-11-18T17:27:22.963Z,10.03
2022-11-18T17:30:08.639Z,10.12
2022-11-18T17:32:54.702Z,10.12
2022-11-18T17:35:39.815Z,10.10
2022-11-18T17:38:25.105Z,10.06
2022-11-18T17:41:34.503Z,10.03
2022-11-18T17:44:20.043Z,10.16
2022-11-18T17:47:05.329Z,10.06
2022-11-18T17:49:51.337Z,10.07
2022-11-18T17:52:36.540Z,10.06
2022-11-18T17:55:21.543Z,10.04
2022-11-18T17:58:07.465Z,9.97
2022-11-18T18:00:52.711Z,10.01
2022-11-18T18:03:38.415Z,10.03
2022-11-18T18:06:23.789Z,10.02
2022-11-18T18:09:08.643Z,9.92
2022-11-18T18:11:54.202Z,9.99
2022-11-18T18:14:43.305Z,10.00
2022-11-18T18:17:28.777Z,10.00
2022-11-18T18:20:14.604Z,9.97
2022-11-18T18:22:59.605Z,9.99
2022-11-18T18:25:44.836Z,9.92
2022-11-18T18:28:30.072Z,9.97
2022-11-18T18:31:16.975Z,10.00
2022-11-18T18:34:02.915Z,10.03
2022-11-18T18:36:48.264Z,10.03
2022-11-18T18:39:33.396Z,10.01
2022-11-18T18:42:18.959Z,9.96
2022-11-18T18:45:23.313Z,9.88
2022-11-18T18:48:08.583Z,9.85
2022-11-18T18:50:53.881Z,9.94
2022-11-18T18:53:39.026Z,9.97
2022-11-18T18:56:25.639Z,9.99
2022-11-18T18:59:11.060Z,9.98
2022-11-18T19:01:56.201Z,9.89
2022-11-18T19:04:41.025Z,9.85
2022-11-18T19:07:27.842Z,9.93
2022-11-18T19:10:13.164Z,9.96
2022-11-18T19:12:58.238Z,9.97
2022-11-18T19:15:43.283Z,9.94
2022-11-18T19:18:28.313Z,9.93
2022-11-18T19:21:13.582Z,9.92
2022-11-18T19:23:58.471Z,9.91
2022-11-18T19:26:43.502Z,9.87
2022-11-18T19:29:28.720Z,9.70
2022-11-18T19:32:14.531Z,9.86
2022-11-18T19:34:59.631Z,9.85
2022-11-18T19:37:44.485Z,9.64
2022-11-18T19:40:29.834Z,9.75
2022-11-18T19:43:15.026Z,9.77
2022-11-18T19:46:00.244Z,9.77
2022-11-18T19:48:51.047Z,9.76
2022-11-18T19:51:37.004Z,9.74
2022-11-18T19:54:22.226Z,9.67
2022-11-18T19:57:08.049Z,9.54
2022-11-18T19:59:53.248Z,9.59
2022-11-18T20:02:38.542Z,9.60
2022-11-18T20:05:46.997Z,9.57
2022-11-18T20:08:34.744Z,9.59
2022-11-18T20:11:21.241Z,9.62
2022-11-18T20:14:08.241Z,9.51
2022-11-18T20:16:53.943Z,9.43
2022-11-18T20:19:38.961Z,9.34
2022-11-18T20:22:24.019Z,9.44
2022-11-18T20:25:09.316Z,9.54
2022-11-18T20:27:54.864Z,9.55
2022-11-18T20:30:40.150Z,9.56
2022-11-18T20:33:25.356Z,9.58
2022-11-18T20:36:13.034Z,9.55
2022-11-18T20:39:03.907Z,9.52
2022-11-18T20:42:07.618Z,9.54
2022-11-18T20:44:52.750Z,9.45
2022-11-18T20:47:37.803Z,9.46
2022-11-18T20:50:22.833Z,9.46
2022-11-18T20:53:07.803Z,9.48
2022-11-18T20:55:52.928Z,9.40
2022-11-18T20:58:37.940Z,9.41
2022-11-18T21:01:28.608Z,9.41
2022-11-18T21:04:13.654Z,9.48
2022-11-18T21:07:01.573Z,9.27
2022-11-18T21:09:47.768Z,9.36
2022-11-18T21:12:32.963Z,9.33
2022-11-18T21:15:17.831Z,9.21
2022-11-18T21:18:02.882Z,9.30
2022-11-18T21:21:06.611Z,9.28
2022-11-18T21:23:55.948Z,9.30
2022-11-18T21:26:42.254Z,9.32
2022-11-18T21:29:29.496Z,9.31
2022-11-18T21:32:14.744Z,9.21
2022-11-18T21:34:59.854Z,9.17
2022-11-18T21:37:44.676Z,9.21
2022-11-18T21:40:30.336Z,9.24
2022-11-18T21:43:15.533Z,9.27
2022-11-18T21:46:02.488Z,9.19
2022-11-18T21:48:47.982Z,9.21
2022-11-18T21:51:34.379Z,9.25
2022-11-18T21:54:19.444Z,9.31
2022-11-18T21:57:04.641Z,9.28
2022-11-18T21:59:49.637Z,9.30
2022-11-18T22:02:34.520Z,9.27
2022-11-18T22:05:19.814Z,9.28
2022-11-18T22:08:04.935Z,9.16
2022-11-18T22:10:50.113Z,9.26
2022-11-18T22:13:35.550Z,9.20
2022-11-18T22:16:25.476Z,9.28
2022-11-18T22:19:10.436Z,9.14
2022-11-18T22:21:55.500Z,9.22
2022-11-18T22:24:40.775Z,9.26
2022-11-18T22:27:26.127Z,9.24
2022-11-18T22:30:11.584Z,9.23
2022-11-18T22:32:56.703Z,9.13
2022-11-18T22:35:42.052Z,9.19
2022-11-18T22:38:27.338Z,9.19
2022-11-18T22:41:33.794Z,9.19
2022-11-18T22:44:18.843Z,9.04
2022-11-18T22:47:04.042Z,9.18
2022-11-18T22:49:53.514Z,9.05
2022-11-18T22:52:41.290Z,9.02
2022-11-18T22:55:26.264Z,9.10
2022-11-18T22:58:11.425Z,8.96
2022-11-18T23:01:04.984Z,9.00
2022-11-18T23:03:53.885Z,8.97
2022-11-18T23:06:39.095Z,8.95
2022-11-18T23:09:24.140Z,8.77
2022-11-18T23:12:27.797Z,8.83
2022-11-18T23:15:12.897Z,8.79
2022-11-18T23:17:57.820Z,8.70
2022-11-18T23:20:42.880Z,8.69
2022-11-18T23:23:30.272Z,8.76
2022-11-18T23:26:15.929Z,8.74
2022-11-18T23:29:00.890Z,8.72
2022-11-18T23:31:46.242Z,8.64
2022-11-18T23:34:31.585Z,8.65
2022-11-18T23:37:16.693Z,8.64
2022-11-18T23:40:01.663Z,8.54
2022-11-18T23:42:46.447Z,8.61
2022-11-18T23:45:31.422Z,8.61
2022-11-18T23:48:16.418Z,8.65
2022-11-18T23:51:12.548Z,8.64
2022-11-18T23:53:57.873Z,8.68
2022-11-18T23:56:43.187Z,8.72
2022-11-18T23:59:29.222Z,8.75
